Time;durP1;ratioP1;P1;durP2;ratioP2;P2;SDS_P1;SDS_P2;PMS_P1;PMS_P2;Temp;Humidity;BMP_temperature;BMP_pressure;BME280_temperature;BME280_humidity;BME280_pressure;Samples;Min_cycle;Max_cycle;Signal;HPM_P1;HPM_P2
2021/12/04 00:01:25;;;;;;;3.10;2.80;;;17.70;41.50;;;;;;5093973;28;20716;-50
2021/12/04 00:03:53;;;;;;;3.63;3.13;;;17.70;41.30;;;;;;5095672;28;20167;-51
2021/12/04 00:06:24;;;;;;;3.63;3.20;;;17.70;41.60;;;;;;5095504;28;20269;-51
2021/12/04 00:08:51;;;;;;;3.50;3.20;;;17.60;41.60;;;;;;5070533;22;20230;-56
2021/12/04 00:11:19;;;;;;;3.38;3.08;;;17.60;41.60;;;;;;5035437;28;20211;-56
2021/12/04 00:13:46;;;;;;;3.67;2.80;;;17.60;41.30;;;;;;5035133;28;20192;-56
2021/12/04 00:16:13;;;;;;;4.47;3.22;;;17.60;41.60;;;;;;5035152;28;20223;-56
2021/12/04 00:18:42;;;;;;;4.55;3.20;;;17.50;41.50;;;;;;5035035;28;20230;-55
2021/12/04 00:21:09;;;;;;;5.22;2.95;;;17.50;41.60;;;;;;5035332;28;20192;-55
2021/12/04 00:23:36;;;;;;;2.80;2.60;;;17.50;41.80;;;;;;5017268;28;20204;-56
2021/12/04 00:26:04;;;;;;;3.95;2.90;;;17.50;41.90;;;;;;5017231;28;20228;-56
2021/12/04 00:28:31;;;;;;;3.53;2.55;;;17.50;41.90;;;;;;5035111;28;20299;-55
2021/12/04 00:31:04;;;;;;;3.38;3.03;;;17.50;42.10;;;;;;5034872;28;20243;-56
2021/12/04 00:33:32;;;;;;;3.50;2.88;;;17.40;41.90;;;;;;5017090;28;20211;-55
2021/12/04 00:36:03;;;;;;;3.22;2.90;;;17.40;42.00;;;;;;5017002;28;20196;-55
2021/12/04 00:49:24;;;;;;;6.88;3.30;;;17.40;42.30;;;;;;5034580;28;20177;-55
2021/12/04 00:51:54;;;;;;;5.68;3.67;;;17.30;42.20;;;;;;5034717;28;20200;-56
2021/12/04 00:54:21;;;;;;;5.30;3.20;;;17.30;42.30;;;;;;5016816;28;20227;-56
2021/12/04 00:56:48;;;;;;;4.97;3.60;;;17.30;42.40;;;;;;5034334;28;20564;-55
2021/12/04 00:59:15;;;;;;;5.93;3.17;;;17.30;42.40;;;;;;5016684;28;20771;-56
2021/12/04 01:01:42;;;;;;;5.43;3.30;;;17.30;42.50;;;;;;5034755;28;20572;-56
2021/12/04 01:04:10;;;;;;;6.32;3.20;;;17.30;42.50;;;;;;5017050;28;20228;-56
2021/12/04 01:06:38;;;;;;;4.13;3.53;;;17.30;42.30;;;;;;5016442;28;20195;-56
2021/12/04 01:09:07;;;;;;;4.25;3.40;;;17.30;42.20;;;;;;5016421;28;20257;-56
2021/12/04 01:11:34;;;;;;;3.95;3.20;;;17.30;41.90;;;;;;5016448;28;20219;-55
2021/12/04 01:14:02;;;;;;;4.65;3.30;;;17.30;42.10;;;;;;5016376;28;20207;-56
2021/12/04 01:16:29;;;;;;;4.82;3.35;;;17.30;42.30;;;;;;5016301;28;20290;-56
2021/12/04 01:18:56;;;;;;;4.43;3.13;;;17.20;42.00;;;;;;5033862;28;20306;-55
2021/12/04 01:21:23;;;;;;;3.75;3.25;;;17.20;41.90;;;;;;5033975;28;20188;-56
2021/12/04 01:23:51;;;;;;;3.30;2.90;;;17.20;44.30;;;;;;5016099;28;20192;-56
2021/12/04 01:26:20;;;;;;;4.15;3.45;;;17.20;45.00;;;;;;5033724;28;20223;-56
2021/12/04 01:28:47;;;;;;;3.60;3.28;;;17.30;45.20;;;;;;5016101;28;20199;-56
2021/12/04 01:31:14;;;;;;;3.42;3.00;;;17.30;45.50;;;;;;5016316;28;20203;-56
2021/12/04 01:33:41;;;;;;;3.55;3.10;;;17.20;45.00;;;;;;5033897;28;20315;-56
2021/12/04 01:36:09;;;;;;;3.47;2.97;;;17.30;45.00;;;;;;5033588;28;20192;-56
2021/12/04 01:38:36;;;;;;;3.80;3.03;;;17.20;44.70;;;;;;5015804;28;20281;-56
2021/12/04 01:41:04;;;;;;;3.58;2.97;;;17.30;44.80;;;;;;5015965;28;20203;-56
2021/12/04 01:43:32;;;;;;;4.60;3.10;;;17.30;44.70;;;;;;5033622;28;20216;-56
2021/12/04 01:45:59;;;;;;;3.50;2.90;;;17.20;44.70;;;;;;5033650;28;20250;-56
2021/12/04 01:48:27;;;;;;;3.90;3.00;;;17.20;44.50;;;;;;5016208;28;20216;-56
2021/12/04 01:50:55;;;;;;;3.92;3.10;;;17.20;44.20;;;;;;5015765;28;20196;-55
2021/12/04 01:53:22;;;;;;;4.35;2.97;;;17.20;44.40;;;;;;5033574;28;20215;-56
2021/12/04 01:55:51;;;;;;;4.35;3.00;;;17.10;44.40;;;;;;5015721;28;20200;-56
2021/12/04 01:58:18;;;;;;;3.90;2.95;;;17.20;44.50;;;;;;5033639;28;20223;-56
2021/12/04 02:00:46;;;;;;;2.80;2.50;;;17.10;44.30;;;;;;5033460;28;20715;-56
2021/12/04 02:03:14;;;;;;;2.97;2.30;;;17.10;44.50;;;;;;5033735;28;20257;-56
2021/12/04 02:05:41;;;;;;;4.43;2.47;;;17.10;44.50;;;;;;5015749;28;20672;-56
2021/12/04 02:08:08;;;;;;;5.25;3.03;;;17.10;44.30;;;;;;5033305;28;20676;-56
2021/12/04 02:10:35;;;;;;;3.92;2.70;;;17.10;44.00;;;;;;5033225;28;20279;-56
2021/12/04 02:13:02;;;;;;;3.35;2.50;;;17.10;44.10;;;;;;5033259;28;20275;-56
2021/12/04 02:15:30;;;;;;;3.15;2.50;;;17.10;44.20;;;;;;5033537;28;20196;-56
2021/12/04 02:17:59;;;;;;;3.92;2.83;;;17.00;44.10;;;;;;5033468;28;20239;-56
2021/12/04 02:20:28;;;;;;;2.70;2.50;;;17.00;44.30;;;;;;5033140;28;20742;-56
2021/12/04 02:22:56;;;;;;;3.00;2.47;;;17.00;44.50;;;;;;5033655;28;20192;-56
2021/12/04 02:25:23;;;;;;;3.80;2.72;;;17.00;44.50;;;;;;5015524;28;20223;-56
2021/12/04 02:27:50;;;;;;;3.80;2.58;;;17.00;44.30;;;;;;5015533;28;20212;-56
2021/12/04 02:30:18;;;;;;;2.40;2.20;;;16.90;44.50;;;;;;5030930;22;20639;-62
2021/12/04 02:32:45;;;;;;;4.25;2.70;;;16.90;44.40;;;;;;5014408;28;20249;-65
2021/12/04 02:35:12;;;;;;;3.83;2.80;;;16.90;44.50;;;;;;5033895;28;20195;-66
2021/12/04 02:37:41;;;;;;;2.80;2.60;;;16.90;44.50;;;;;;5017751;28;20215;-66
2021/12/04 02:40:11;;;;;;;3.00;2.55;;;16.90;44.60;;;;;;5020304;28;20573;-66
2021/12/04 02:42:38;;;;;;;3.20;2.55;;;16.90;44.50;;;;;;5022054;28;20200;-65
2021/12/04 02:45:07;;;;;;;2.70;2.50;;;16.90;44.60;;;;;;5039998;28;20204;-66
2021/12/04 02:47:34;;;;;;;2.70;2.30;;;16.80;44.60;;;;;;5031414;28;20266;-66
2021/12/04 02:50:04;;;;;;;2.95;2.50;;;16.80;44.70;;;;;;5019610;28;20196;-66
2021/12/04 02:52:32;;;;;;;2.83;2.58;;;16.80;44.60;;;;;;5019474;28;20270;-66
2021/12/04 02:55:00;;;;;;;2.53;2.33;;;16.80;44.60;;;;;;5019920;28;20192;-65
2021/12/04 02:57:28;;;;;;;3.00;2.50;;;16.80;44.60;;;;;;5021028;28;20216;-65
2021/12/04 02:59:56;;;;;;;2.70;2.50;;;16.80;44.80;;;;;;5038863;28;20234;-66
2021/12/04 03:02:24;;;;;;;2.63;2.42;;;16.80;44.60;;;;;;5021719;28;20237;-65
2021/12/04 03:04:52;;;;;;;2.95;2.55;;;16.70;44.70;;;;;;5022993;28;20226;-65
2021/12/04 03:07:19;;;;;;;2.90;2.65;;;16.70;44.60;;;;;;5022926;28;20571;-65
2021/12/04 03:09:47;;;;;;;3.00;2.50;;;16.70;44.60;;;;;;5022824;28;20730;-66
2021/12/04 03:12:15;;;;;;;2.50;2.30;;;16.70;44.60;;;;;;5021093;28;20200;-66
2021/12/04 03:14:43;;;;;;;2.75;2.55;;;16.70;44.70;;;;;;5133369;23;20342;-67
2021/12/04 03:17:10;;;;;;;2.80;2.50;;;16.70;44.70;;;;;;5019414;28;20224;-67
2021/12/04 03:19:38;;;;;;;3.40;2.60;;;16.70;44.60;;;;;;5036238;28;20223;-67
2021/12/04 03:22:06;;;;;;;3.20;2.28;;;16.70;44.60;;;;;;5018512;28;20227;-67
2021/12/04 03:24:37;;;;;;;2.63;2.40;;;16.70;44.70;;;;;;5018296;28;20196;-67
2021/12/04 03:27:05;;;;;;;2.97;2.65;;;16.70;44.60;;;;;;5018167;28;20234;-67
2021/12/04 03:29:37;;;;;;;3.50;2.72;;;16.60;44.50;;;;;;5018307;28;20192;-67
2021/12/04 03:32:18;;;;;;;3.00;2.42;;;16.60;44.50;;;;;;5036368;28;20184;-67
2021/12/04 03:40:35;;;;;;;2.90;2.70;;;16.70;44.40;;;;;;5018195;28;20196;-67
2021/12/04 03:43:02;;;;;;;2.75;2.55;;;16.60;44.40;;;;;;5018907;28;20657;-67
2021/12/04 03:45:32;;;;;;;2.67;2.47;;;16.60;44.20;;;;;;5019756;28;20220;-67
2021/12/04 03:48:06;;;;;;;3.10;2.80;;;16.60;44.90;;;;;;5036555;28;20699;-67
2021/12/04 03:50:34;;;;;;;2.55;2.35;;;16.60;44.10;;;;;;5018438;28;20200;-67
2021/12/04 03:53:01;;;;;;;2.80;2.60;;;16.60;44.00;;;;;;5018735;28;20613;-67
2021/12/04 03:55:28;;;;;;;3.22;2.47;;;16.60;43.80;;;;;;5017782;28;20722;-67
2021/12/04 03:57:55;;;;;;;3.00;2.70;;;16.60;43.90;;;;;;5017620;28;20298;-67
2021/12/04 04:00:28;;;;;;;3.08;2.88;;;16.60;43.80;;;;;;5017829;28;20306;-67
2021/12/04 04:02:56;;;;;;;3.22;2.90;;;16.60;43.90;;;;;;5017791;28;20220;-67
2021/12/04 04:05:23;;;;;;;2.95;2.75;;;16.60;44.00;;;;;;5017608;28;20580;-67
2021/12/04 04:07:51;;;;;;;3.85;2.83;;;16.60;43.80;;;;;;5017470;28;20220;-67
2021/12/04 04:10:18;;;;;;;2.60;2.40;;;16.60;43.80;;;;;;5035142;28;20538;-67
2021/12/04 04:12:45;;;;;;;2.63;2.42;;;16.60;43.80;;;;;;5035145;28;20567;-67
2021/12/04 04:15:11;;;;;;;2.83;2.55;;;16.60;44.40;;;;;;5017191;28;20212;-67
2021/12/04 04:17:43;;;;;;;2.67;2.47;;;16.60;44.00;;;;;;5035225;28;20703;-67
2021/12/04 04:20:12;;;;;;;3.42;3.13;;;16.60;44.00;;;;;;5034913;28;20201;-67
2021/12/04 04:22:39;;;;;;;3.28;3.08;;;16.50;43.70;;;;;;5017172;28;20200;-67
2021/12/04 04:25:07;;;;;;;3.88;3.08;;;16.60;43.90;;;;;;5034879;28;20660;-67
2021/12/04 04:27:34;;;;;;;3.10;2.80;;;16.50;43.90;;;;;;5016962;28;20216;-67
2021/12/04 04:30:01;;;;;;;3.33;3.03;;;16.60;43.80;;;;;;5017074;28;20203;-67
2021/12/04 04:32:29;;;;;;;2.80;2.60;;;16.60;43.80;;;;;;5016886;28;20287;-67
2021/12/04 04:35:04;;;;;;;4.05;3.25;;;16.60;43.90;;;;;;5017047;28;20215;-67
2021/12/04 04:37:38;;;;;;;3.00;2.80;;;16.60;43.80;;;;;;5016838;28;20231;-67
2021/12/04 04:59:38;;;;;;;2.90;2.60;;;16.70;43.70;;;;;;5015983;28;20255;-67
2021/12/04 05:13:28;;;;;;;2.47;2.33;;;16.70;44.50;;;;;;4976081;28;20223;-67
2021/12/04 05:15:58;;;;;;;2.47;2.33;;;16.70;43.90;;;;;;5023512;28;20239;-67
2021/12/04 05:18:34;;;;;;;2.90;2.70;;;16.70;43.70;;;;;;5016084;28;20230;-67
2021/12/04 05:21:06;;;;;;;2.58;2.38;;;16.70;43.90;;;;;;5034056;28;20238;-66
2021/12/04 05:23:34;;;;;;;3.10;2.80;;;16.70;43.80;;;;;;5033704;28;20603;-67
2021/12/04 05:26:03;;;;;;;2.63;2.42;;;16.80;43.70;;;;;;5033635;28;20604;-67
2021/12/04 05:28:30;;;;;;;2.80;2.60;;;16.80;43.70;;;;;;5016085;28;20645;-66
2021/12/04 05:30:57;;;;;;;3.13;2.83;;;16.80;43.70;;;;;;5034052;28;20188;-67
2021/12/04 05:33:25;;;;;;;2.88;2.67;;;16.80;43.60;;;;;;5016972;28;20250;-66
2021/12/04 05:35:52;;;;;;;2.60;2.40;;;16.80;43.40;;;;;;5017719;28;20200;-66
2021/12/04 05:38:20;;;;;;;2.90;2.70;;;16.80;43.50;;;;;;5017090;28;20227;-66
2021/12/04 05:40:47;;;;;;;2.78;2.50;;;16.90;43.40;;;;;;5034178;28;20203;-66
2021/12/04 05:43:16;;;;;;;2.63;2.40;;;16.90;43.30;;;;;;5034919;28;20194;-66
2021/12/04 05:45:48;;;;;;;2.92;2.72;;;16.90;43.30;;;;;;5016949;28;20200;-66
2021/12/04 05:48:20;;;;;;;3.22;2.50;;;16.90;43.30;;;;;;5016692;28;20220;-66
2021/12/04 05:53:44;;;;;;;2.50;2.30;;;16.90;43.30;;;;;;5006094;28;20188;-66
2021/12/04 05:56:11;;;;;;;2.72;2.53;;;17.00;43.40;;;;;;5016626;28;20282;-66
2021/12/04 05:58:40;;;;;;;2.50;2.30;;;17.00;43.40;;;;;;5033923;28;20285;-66
2021/12/04 06:01:07;;;;;;;2.47;2.28;;;17.00;43.30;;;;;;5016701;28;20627;-66
2021/12/04 06:03:34;;;;;;;2.53;2.33;;;17.00;43.30;;;;;;5016177;28;20210;-67
2021/12/04 06:06:01;;;;;;;2.70;2.50;;;17.00;43.20;;;;;;5016321;28;20223;-66
2021/12/04 06:08:28;;;;;;;2.85;2.38;;;17.10;43.30;;;;;;5016211;28;20212;-66
2021/12/04 06:10:55;;;;;;;3.00;2.63;;;17.10;43.20;;;;;;5016479;28;20680;-67
2021/12/04 06:13:22;;;;;;;2.80;2.60;;;17.10;43.20;;;;;;5015708;28;20568;-66
2021/12/04 06:15:51;;;;;;;2.80;2.60;;;17.10;43.10;;;;;;5016384;28;20698;-66
2021/12/04 06:18:18;;;;;;;2.92;2.70;;;17.10;43.20;;;;;;5015904;28;20220;-67
2021/12/04 06:23:32;;;;;;;3.13;2.92;;;17.10;43.00;;;;;;5015886;28;20192;-67
2021/12/04 06:25:59;;;;;;;2.88;2.67;;;17.20;43.00;;;;;;5015961;28;20204;-67
2021/12/04 06:28:26;;;;;;;2.40;2.30;;;17.20;43.00;;;;;;5033289;28;20395;-66
2021/12/04 06:30:55;;;;;;;2.60;2.40;;;17.20;43.00;;;;;;5033402;28;20189;-66
2021/12/04 06:33:22;;;;;;;2.90;2.60;;;17.20;43.00;;;;;;5015579;28;20207;-67
2021/12/04 06:35:49;;;;;;;3.47;2.78;;;17.20;43.00;;;;;;5033541;28;20192;-66
2021/12/04 06:38:18;;;;;;;2.60;2.40;;;17.20;42.90;;;;;;5033574;28;20208;-66
2021/12/04 06:40:46;;;;;;;2.55;2.35;;;17.20;42.90;;;;;;5015287;28;20222;-66
2021/12/04 06:43:13;;;;;;;3.20;2.90;;;17.20;42.80;;;;;;5015352;28;20232;-66
2021/12/04 06:45:41;;;;;;;2.40;2.20;;;17.30;42.90;;;;;;5033292;28;20216;-67
2021/12/04 06:48:12;;;;;;;2.80;2.60;;;17.20;42.80;;;;;;4995757;28;20223;-67
2021/12/04 06:50:43;;;;;;;3.10;2.80;;;17.30;42.90;;;;;;5027681;28;20200;-66
2021/12/04 06:53:18;;;;;;;2.65;2.45;;;17.30;42.80;;;;;;5033216;28;20638;-66
2021/12/04 06:55:48;;;;;;;2.55;2.42;;;17.30;42.80;;;;;;5033374;28;20234;-66
2021/12/04 06:58:15;;;;;;;2.42;2.28;;;17.30;42.80;;;;;;5031691;28;20315;-66
2021/12/04 07:00:43;;;;;;;2.25;2.15;;;17.30;42.80;;;;;;5033359;28;20208;-66
2021/12/04 07:03:11;;;;;;;2.28;2.08;;;17.30;42.80;;;;;;5032138;28;20207;-66
2021/12/04 07:05:38;;;;;;;2.10;2.00;;;17.40;42.90;;;;;;5032290;28;20204;-66
2021/12/04 07:08:05;;;;;;;2.33;2.20;;;17.30;42.70;;;;;;5032269;28;20216;-65
2021/12/04 07:10:33;;;;;;;2.58;2.38;;;17.40;42.80;;;;;;5030203;28;20580;-66
2021/12/04 07:13:00;;;;;;;2.30;2.10;;;17.40;42.80;;;;;;5015347;28;20196;-66
2021/12/04 07:15:29;;;;;;;2.90;2.33;;;17.40;42.70;;;;;;5033173;28;20200;-66
2021/12/04 07:17:56;;;;;;;2.17;2.00;;;17.40;42.70;;;;;;5033069;28;20287;-66
2021/12/04 07:20:25;;;;;;;2.58;2.38;;;17.40;42.70;;;;;;5015086;28;20222;-66
2021/12/04 07:22:52;;;;;;;2.20;2.10;;;17.40;43.30;;;;;;5033108;28;20193;-66
2021/12/04 07:25:20;;;;;;;2.25;2.10;;;17.40;42.70;;;;;;5018403;28;20565;-67
2021/12/04 07:27:50;;;;;;;2.20;2.10;;;17.40;42.80;;;;;;5018749;28;20589;-66
2021/12/04 07:30:17;;;;;;;2.20;2.10;;;17.50;42.80;;;;;;5018509;28;20196;-66
2021/12/04 07:32:45;;;;;;;2.08;1.98;;;17.50;42.80;;;;;;5022865;28;20200;-66
2021/12/04 07:35:12;;;;;;;2.40;2.20;;;17.50;42.90;;;;;;5038434;28;20195;-66
2021/12/04 07:37:41;;;;;;;2.10;2.00;;;17.50;42.90;;;;;;5055972;28;20765;-66
2021/12/04 07:40:09;;;;;;;2.53;2.33;;;17.50;42.80;;;;;;5038116;28;20254;-67
2021/12/04 07:42:37;;;;;;;2.30;2.20;;;17.50;42.80;;;;;;5038072;28;20230;-67
2021/12/04 07:45:05;;;;;;;2.10;2.00;;;17.50;42.80;;;;;;5039118;28;20193;-66
2021/12/04 07:47:32;;;;;;;2.45;2.25;;;17.50;42.80;;;;;;4998135;28;20225;-67
2021/12/04 07:50:01;;;;;;;2.08;1.90;;;17.50;42.80;;;;;;4998386;28;20193;-66
2021/12/04 07:52:28;;;;;;;2.15;1.95;;;17.50;42.70;;;;;;5015872;28;20197;-67
2021/12/04 07:54:57;;;;;;;2.13;1.90;;;17.50;42.70;;;;;;4998173;28;20271;-67
2021/12/04 07:57:25;;;;;;;2.63;2.10;;;17.60;42.80;;;;;;4997730;28;20220;-67
2021/12/04 07:59:52;;;;;;;2.55;2.35;;;17.60;42.80;;;;;;5015623;28;20684;-66
2021/12/04 08:02:19;;;;;;;1.95;1.85;;;17.60;42.90;;;;;;4998201;28;20204;-66
2021/12/04 08:04:46;;;;;;;2.30;2.10;;;17.60;42.80;;;;;;4998206;28;20250;-67
2021/12/04 08:07:13;;;;;;;2.60;2.40;;;17.60;42.80;;;;;;4997869;28;20743;-67
2021/12/04 08:09:40;;;;;;;2.40;2.20;;;17.60;42.80;;;;;;5014475;28;20196;-65
2021/12/04 08:12:10;;;;;;;2.10;2.00;;;17.60;42.80;;;;;;5015616;28;20653;-67
2021/12/04 08:14:38;;;;;;;2.00;1.90;;;17.60;42.80;;;;;;5015615;28;20189;-67
2021/12/04 08:17:04;;;;;;;2.20;2.10;;;17.60;42.80;;;;;;4998249;28;20225;-67
2021/12/04 08:19:32;;;;;;;2.00;1.90;;;17.70;42.90;;;;;;4997916;28;20216;-67
2021/12/04 08:21:59;;;;;;;2.17;2.00;;;17.60;42.80;;;;;;5015463;28;20200;-67
2021/12/04 08:24:26;;;;;;;2.00;1.80;;;17.70;42.80;;;;;;4998387;28;20657;-67
2021/12/04 08:26:53;;;;;;;1.85;1.75;;;17.70;42.80;;;;;;4997638;28;20620;-67
2021/12/04 08:29:22;;;;;;;2.10;2.00;;;17.70;42.80;;;;;;4998525;28;20200;-67
2021/12/04 08:31:50;;;;;;;2.08;1.88;;;17.70;42.80;;;;;;5034208;28;20319;-67
2021/12/04 08:34:18;;;;;;;1.90;1.80;;;17.70;42.80;;;;;;5034887;28;20212;-67
2021/12/04 08:36:46;;;;;;;1.90;1.80;;;17.70;42.70;;;;;;5029409;28;20207;-66
2021/12/04 08:39:13;;;;;;;2.00;1.90;;;17.80;42.80;;;;;;5033671;28;20208;-65
2021/12/04 08:41:41;;;;;;;1.88;1.77;;;17.80;42.80;;;;;;5034690;28;20196;-67
2021/12/04 08:44:08;;;;;;;1.80;1.70;;;17.80;42.80;;;;;;5033435;28;20193;-67
2021/12/04 08:46:37;;;;;;;1.98;1.88;;;17.80;42.80;;;;;;5016742;28;20196;-67
2021/12/04 08:49:05;;;;;;;1.80;1.70;;;17.80;42.80;;;;;;5005488;28;20724;-67
2021/12/04 08:51:32;;;;;;;2.00;1.90;;;17.80;42.70;;;;;;4996487;28;20196;-67
2021/12/04 08:53:59;;;;;;;1.70;1.60;;;17.80;42.70;;;;;;4996818;28;20626;-67
2021/12/04 08:56:26;;;;;;;2.00;1.90;;;17.80;42.70;;;;;;5014804;28;20200;-67
2021/12/04 08:58:54;;;;;;;1.83;1.70;;;17.90;42.80;;;;;;4997650;28;20271;-66
2021/12/04 09:01:25;;;;;;;1.85;1.75;;;17.90;42.80;;;;;;4996627;28;20232;-68
2021/12/04 09:03:55;;;;;;;1.92;1.83;;;17.90;42.80;;;;;;4996808;28;20207;-68
2021/12/04 09:06:23;;;;;;;1.70;1.60;;;17.90;42.80;;;;;;5014810;28;20181;-67
2021/12/04 09:08:51;;;;;;;1.80;1.70;;;17.90;42.70;;;;;;5014825;28;20287;-67
2021/12/04 09:11:19;;;;;;;1.88;1.77;;;17.90;42.80;;;;;;4997240;28;20256;-67
2021/12/04 09:13:47;;;;;;;1.73;1.63;;;17.90;42.70;;;;;;5014624;28;20197;-67
2021/12/04 09:16:15;;;;;;;2.40;1.90;;;17.90;42.80;;;;;;5014485;28;20263;-67
2021/12/04 09:18:42;;;;;;;1.70;1.60;;;18.00;42.80;;;;;;4996657;28;20268;-67
2021/12/04 09:21:11;;;;;;;1.83;1.73;;;18.00;42.70;;;;;;4996759;28;20230;-67
2021/12/04 09:23:40;;;;;;;2.20;1.90;;;18.00;42.70;;;;;;4996907;28;20196;-67
2021/12/04 09:26:09;;;;;;;1.92;1.73;;;18.00;42.70;;;;;;4997003;28;20201;-65
2021/12/04 09:28:51;;;;;;;1.90;1.80;;;18.00;42.70;;;;;;5014310;28;20275;-67
2021/12/04 09:31:42;;;;;;;1.80;1.70;;;18.00;42.70;;;;;;4997120;28;20259;-67
2021/12/04 09:59:38;;;;;;;2.00;1.80;;;18.10;42.70;;;;;;4996187;28;20684;-67
2021/12/04 10:02:12;;;;;;;2.33;1.85;;;18.10;42.70;;;;;;4996383;28;20216;-68
2021/12/04 10:13:29;;;;;;;2.63;2.20;;;18.20;43.00;;;;;;5033430;28;20192;-63
2021/12/04 10:19:15;;;;;;;2.08;1.92;;;18.20;43.50;;;;;;5015888;28;20216;-63
2021/12/04 10:21:55;;;;;;;3.72;1.58;;;18.30;43.70;;;;;;5015792;28;20212;-65
2021/12/04 10:32:56;;;;;;;2.42;1.65;;;18.40;44.60;;;;;;5034516;28;20183;-64
2021/12/04 10:35:24;;;;;;;1.70;1.60;;;18.50;44.60;;;;;;5017034;28;20206;-65
2021/12/04 10:37:53;;;;;;;1.65;1.55;;;18.50;44.50;;;;;;5016564;28;20266;-66
2021/12/04 10:40:23;;;;;;;4.13;1.65;;;18.50;44.60;;;;;;5016484;28;20223;-67
2021/12/04 10:42:54;;;;;;;1.80;1.70;;;18.60;44.70;;;;;;5034623;28;20271;-66
2021/12/04 10:45:32;;;;;;;2.50;1.50;;;18.60;44.60;;;;;;5016209;28;20560;-66
2021/12/04 10:48:00;;;;;;;2.20;1.52;;;18.60;44.70;;;;;;5017710;28;20230;-63
2021/12/04 10:50:32;;;;;;;399.08;246.43;;;18.60;44.70;;;;;;5034660;28;20184;-67
2021/12/04 10:53:02;;;;;;;282.58;206.35;;;18.60;52.30;;;;;;5034060;28;20279;-66
2021/12/04 10:55:33;;;;;;;170.35;117.38;;;18.70;53.50;;;;;;5016911;28;20200;-67
2021/12/04 11:01:04;;;;;;;59.13;39.78;;;18.70;49.20;;;;;;5022137;28;20228;-67
2021/12/04 11:25:49;;;;;;;23.27;17.45;;;19.00;45.30;;;;;;5017475;28;20291;-67
2021/12/04 11:28:29;;;;;;;22.20;15.48;;;19.00;45.50;;;;;;5035683;28;20226;-68
2021/12/04 11:36:42;;;;;;;20.65;14.93;;;19.10;46.80;;;;;;5019296;28;20188;-68
2021/12/04 11:39:24;;;;;;;19.70;13.23;;;19.10;46.40;;;;;;5019478;28;20255;-66
2021/12/04 11:42:03;;;;;;;20.80;14.07;;;19.10;46.20;;;;;;5018762;28;20303;-66
2021/12/04 11:44:34;;;;;;;22.20;14.63;;;19.10;45.50;;;;;;5018076;28;20663;-66
2021/12/04 11:47:03;;;;;;;18.52;14.32;;;19.10;46.10;;;;;;5017182;28;20461;-67
2021/12/04 11:49:32;;;;;;;19.75;13.10;;;19.20;46.00;;;;;;5034832;28;20698;-67
2021/12/04 11:52:02;;;;;;;18.55;13.05;;;19.20;45.30;;;;;;5017833;28;20196;-68
2021/12/04 11:54:31;;;;;;;15.65;11.25;;;19.20;45.10;;;;;;5018678;28;20192;-67
2021/12/04 11:57:00;;;;;;;17.05;11.35;;;19.20;45.10;;;;;;5018869;28;20204;-67
2021/12/04 11:59:28;;;;;;;17.65;12.38;;;19.20;46.10;;;;;;5036105;28;20199;-67
2021/12/04 12:01:56;;;;;;;19.17;12.20;;;19.30;46.20;;;;;;5017995;28;20226;-67
2021/12/04 12:04:32;;;;;;;15.88;10.80;;;19.30;46.50;;;;;;5035864;28;20679;-67
2021/12/04 12:07:12;;;;;;;16.52;10.77;;;19.30;45.80;;;;;;5035527;28;20184;-67
2021/12/04 12:09:40;;;;;;;16.38;10.57;;;19.30;46.20;;;;;;5035287;28;20227;-66
2021/12/04 12:12:11;;;;;;;14.40;10.00;;;19.30;45.90;;;;;;5034581;28;20537;-67
2021/12/04 12:14:43;;;;;;;15.77;9.70;;;19.40;45.90;;;;;;5035711;28;20200;-66
2021/12/04 12:17:10;;;;;;;16.35;10.57;;;19.50;45.90;;;;;;5035355;28;20204;-65
2021/12/04 12:19:41;;;;;;;14.00;9.82;;;19.50;45.90;;;;;;5017510;28;20200;-67
2021/12/04 12:22:16;;;;;;;12.60;9.63;;;19.50;45.40;;;;;;5017357;28;20354;-68
2021/12/04 12:27:34;;;;;;;14.27;10.07;;;19.50;45.40;;;;;;5035383;28;20253;-66
2021/12/04 12:33:00;;;;;;;14.55;8.85;;;19.60;45.10;;;;;;5035397;28;20200;-66
2021/12/04 12:38:17;;;;;;;12.15;7.70;;;19.60;44.80;;;;;;5017120;28;20223;-66
2021/12/04 12:40:44;;;;;;;12.02;8.68;;;19.60;44.60;;;;;;5016878;28;20700;-65
2021/12/04 12:43:17;;;;;;;10.98;7.28;;;19.60;44.50;;;;;;5016590;28;20200;-65
2021/12/04 12:45:53;;;;;;;10.27;6.30;;;19.50;44.60;;;;;;5034727;28;20192;-65
2021/12/04 12:48:20;;;;;;;9.73;7.00;;;19.60;44.60;;;;;;5034806;28;20219;-66
2021/12/04 12:50:49;;;;;;;9.75;6.63;;;19.50;44.30;;;;;;5017918;28;20618;-66
2021/12/04 12:53:17;;;;;;;10.15;6.82;;;19.50;45.10;;;;;;5035057;28;20219;-66
2021/12/04 12:55:45;;;;;;;10.77;7.22;;;19.50;44.30;;;;;;5035555;28;20278;-69
2021/12/04 12:58:17;;;;;;;10.57;6.43;;;19.50;44.50;;;;;;5035411;28;20314;-66
2021/12/04 13:11:53;;;;;;;8.25;5.28;;;19.60;44.60;;;;;;5018958;28;20188;-68
2021/12/04 13:14:21;;;;;;;9.48;5.80;;;19.60;44.30;;;;;;5024994;28;20202;-69
2021/12/04 13:16:50;;;;;;;9.85;6.03;;;19.60;44.30;;;;;;5024690;28;20572;-67
2021/12/04 13:19:19;;;;;;;7.68;5.22;;;19.60;44.80;;;;;;5019979;28;20215;-67
2021/12/04 13:21:49;;;;;;;7.10;4.68;;;19.60;44.60;;;;;;5017046;28;20218;-67
2021/12/04 13:24:16;;;;;;;7.93;4.78;;;19.60;44.80;;;;;;5017252;28;20199;-68
2021/12/04 13:26:44;;;;;;;6.78;4.28;;;19.60;45.10;;;;;;5017214;28;20665;-65
2021/12/04 13:29:12;;;;;;;7.90;5.05;;;19.60;45.20;;;;;;5035311;28;20218;-65
2021/12/04 13:31:40;;;;;;;7.57;3.80;;;19.60;45.50;;;;;;5034049;28;20598;-66
2021/12/04 13:34:07;;;;;;;6.63;4.03;;;19.60;45.90;;;;;;5016260;28;20231;-66
2021/12/04 13:36:34;;;;;;;5.18;3.67;;;19.60;46.00;;;;;;5016863;28;20204;-66
2021/12/04 13:39:07;;;;;;;5.90;3.67;;;19.60;45.90;;;;;;5016177;28;20373;-65
2021/12/04 13:41:35;;;;;;;5.57;3.65;;;19.60;45.40;;;;;;5020018;28;20237;-66
2021/12/04 13:44:04;;;;;;;6.10;3.92;;;19.60;45.40;;;;;;5017454;28;20672;-66
2021/12/04 13:46:38;;;;;;;5.75;3.50;;;19.50;45.10;;;;;;5033265;28;20623;-66
2021/12/04 13:49:05;;;;;;;6.63;3.20;;;19.50;44.70;;;;;;5015591;28;20231;-65
2021/12/04 13:51:33;;;;;;;4.88;3.58;;;19.50;44.80;;;;;;5033376;28;20223;-67
2021/12/04 13:54:02;;;;;;;4.95;3.15;;;19.50;44.80;;;;;;5033155;28;20275;-67
2021/12/04 13:56:29;;;;;;;4.75;3.42;;;19.50;44.70;;;;;;5015275;28;20227;-66
2021/12/04 13:58:57;;;;;;;5.43;3.47;;;19.50;44.60;;;;;;5015150;28;20707;-65
2021/12/04 14:01:25;;;;;;;5.00;3.55;;;19.50;44.60;;;;;;5015161;28;20211;-66
2021/12/04 14:03:54;;;;;;;4.57;3.45;;;19.50;44.60;;;;;;5015338;28;20200;-67
2021/12/04 14:06:22;;;;;;;4.63;3.10;;;19.50;44.60;;;;;;5015306;28;20303;-67
2021/12/04 14:08:57;;;;;;;4.75;3.10;;;19.50;45.20;;;;;;5015095;28;20255;-64
2021/12/04 14:11:30;;;;;;;5.72;3.00;;;19.50;44.60;;;;;;5033154;28;20567;-66
2021/12/04 14:13:57;;;;;;;3.95;3.08;;;19.40;44.60;;;;;;5015120;28;20674;-67
2021/12/04 14:16:24;;;;;;;7.53;3.20;;;19.50;44.60;;;;;;5015172;28;20636;-66
2021/12/04 14:18:51;;;;;;;3.55;2.70;;;19.50;44.60;;;;;;5032699;28;20215;-65
2021/12/04 14:21:19;;;;;;;4.15;2.83;;;19.50;44.60;;;;;;5014977;28;20226;-63
2021/12/04 14:23:47;;;;;;;3.83;2.70;;;19.40;44.60;;;;;;5032914;28;20184;-66
2021/12/04 14:26:15;;;;;;;3.00;2.70;;;19.40;44.60;;;;;;5015152;28;20338;-66
2021/12/04 14:28:44;;;;;;;4.40;2.78;;;19.40;44.50;;;;;;5032514;28;20207;-65
2021/12/04 14:31:11;;;;;;;4.18;2.80;;;19.40;44.60;;;;;;5015239;28;20234;-66
2021/12/04 14:33:43;;;;;;;3.90;2.70;;;19.40;44.60;;;;;;5017965;28;20202;-66
2021/12/04 14:36:11;;;;;;;4.07;3.00;;;19.40;44.60;;;;;;5019428;28;20202;-64
2021/12/04 14:38:38;;;;;;;3.88;2.60;;;19.40;44.60;;;;;;5037053;28;20244;-67
2021/12/04 14:41:08;;;;;;;3.45;2.70;;;19.40;44.60;;;;;;5018313;28;20218;-66
2021/12/04 14:43:37;;;;;;;4.53;2.60;;;19.40;44.60;;;;;;5019387;28;20234;-65
2021/12/04 14:46:07;;;;;;;3.10;2.42;;;19.40;44.60;;;;;;5037689;28;20628;-64
2021/12/04 14:48:35;;;;;;;3.65;2.47;;;19.40;44.50;;;;;;5019145;28;20227;-66
2021/12/04 14:51:05;;;;;;;3.30;2.42;;;19.40;44.40;;;;;;5018955;28;20223;-64
2021/12/04 14:53:33;;;;;;;3.45;2.53;;;19.40;44.40;;;;;;5018850;28;20196;-68
2021/12/04 14:56:00;;;;;;;3.00;2.28;;;19.40;44.40;;;;;;5018810;28;20204;-67
2021/12/04 14:58:27;;;;;;;2.72;2.22;;;19.40;44.40;;;;;;5018985;28;20234;-67
2021/12/04 15:00:56;;;;;;;3.28;2.35;;;19.40;44.30;;;;;;5018676;28;20207;-65
2021/12/04 15:03:32;;;;;;;2.83;2.35;;;19.40;44.40;;;;;;5018920;28;20207;-65
2021/12/04 15:06:02;;;;;;;2.40;2.20;;;19.40;44.30;;;;;;5018430;28;20192;-66
2021/12/04 15:08:31;;;;;;;2.58;2.33;;;19.40;44.40;;;;;;5018426;28;20232;-65
2021/12/04 15:10:59;;;;;;;2.95;2.33;;;19.40;44.40;;;;;;5018443;28;20247;-65
2021/12/04 15:13:29;;;;;;;2.63;2.20;;;19.40;44.40;;;;;;5036192;28;20196;-65
2021/12/04 15:15:58;;;;;;;2.85;2.00;;;19.40;44.40;;;;;;5018247;28;20196;-67
2021/12/04 15:18:30;;;;;;;2.38;2.10;;;19.40;44.50;;;;;;5035940;28;20208;-66
2021/12/04 15:21:00;;;;;;;2.45;2.25;;;19.40;44.40;;;;;;5036020;28;20652;-68
2021/12/04 15:23:28;;;;;;;4.13;2.28;;;19.40;44.40;;;;;;5036093;28;20281;-68